Time;durP1;ratioP1;P1;durP2;ratioP2;P2;SDS_P1;SDS_P2;PMS_P1;PMS_P2;Temp;Humidity;BMP_temperature;BMP_pressure;BME280_temperature;BME280_humidity;BME280_pressure;Samples;Min_cycle;Max_cycle;Signal;HPM_P1;HPM_P2
2021/11/12 00:04:31;;;;;;;16.90;11.93;;;;;;;6.19;71.94;101596.69;4995604;28;20033;-45
2021/11/12 00:12:23;;;;;;;16.23;12.27;;;;;;;6.20;72.08;101584.50;4998798;28;20093;-45
2021/11/12 00:14:55;;;;;;;17.20;11.93;;;;;;;6.19;71.93;101586.22;5001859;28;20030;-46
2021/11/12 00:17:26;;;;;;;15.98;11.43;;;;;;;6.20;71.50;101580.13;4993317;28;20030;-46
2021/11/12 00:19:52;;;;;;;16.55;11.55;;;;;;;6.20;71.65;101585.38;4993314;28;20033;-45
2021/11/12 00:22:20;;;;;;;17.20;11.82;;;;;;;6.21;71.77;101578.41;5003337;28;20026;-45
2021/11/12 00:24:45;;;;;;;19.08;13.10;;;;;;;6.20;71.67;101569.66;5002877;28;20057;-46
2021/11/12 00:27:11;;;;;;;18.30;12.20;;;;;;;6.19;72.00;101565.28;5012829;28;20131;-46
2021/11/12 00:29:45;;;;;;;15.93;12.07;;;;;;;6.20;71.86;101574.88;5012129;28;20029;-46
2021/11/12 00:37:49;;;;;;;14.85;11.07;;;;;;;6.21;72.03;101571.44;5012769;28;20163;-45
2021/11/12 00:40:22;;;;;;;16.67;12.00;;;;;;;6.18;71.94;101560.88;5012253;28;20030;-43
2021/11/12 00:45:30;;;;;;;15.35;11.73;;;;;;;6.20;71.57;101564.41;5001357;28;20188;-46
2021/11/12 00:50:59;;;;;;;16.15;11.93;;;;;;;6.20;72.17;101556.53;5000867;28;20034;-45
2021/11/12 00:55:42;;;;;;;13.88;10.45;;;;;;;6.20;71.72;101564.41;4999022;28;20025;-45
2021/11/12 00:58:09;;;;;;;15.20;11.45;;;;;;;6.20;71.96;101559.16;5012333;28;20068;-45
2021/11/12 01:00:35;;;;;;;16.65;12.18;;;;;;;6.21;71.65;101566.19;5011857;28;20025;-46
2021/11/12 01:03:01;;;;;;;17.85;12.77;;;;;;;6.21;72.13;101565.31;4996382;28;20157;-45
2021/11/12 01:05:27;;;;;;;16.58;11.05;;;;;;;6.21;71.65;101562.69;4993141;28;20030;-46
2021/11/12 01:07:53;;;;;;;18.98;12.38;;;;;;;6.20;71.57;101569.66;5008696;28;20501;-45
2021/11/12 01:10:19;;;;;;;14.77;10.90;;;;;;;6.20;71.72;101574.88;5010897;28;20030;-44
2021/11/12 01:12:44;;;;;;;16.63;11.43;;;;;;;6.20;72.12;101568.78;5010173;28;20029;-46
2021/11/12 01:15:15;;;;;;;17.65;11.85;;;;;;;6.21;71.72;101573.16;5011956;28;20036;-45
2021/11/12 01:17:41;;;;;;;18.40;12.23;;;;;;;6.20;72.14;101568.78;5012702;28;20029;-46
2021/11/12 01:20:09;;;;;;;15.77;10.90;;;;;;;6.19;71.91;101570.50;4994857;28;20030;-45
2021/11/12 01:22:35;;;;;;;17.85;11.70;;;;;;;6.20;72.09;101574.88;4992655;28;20045;-46
2021/11/12 01:25:04;;;;;;;17.38;12.27;;;;;;;6.20;71.48;101566.16;4992933;28;20034;-45
2021/11/12 01:27:31;;;;;;;16.17;10.95;;;;;;;6.20;71.99;101569.66;4992520;28;20034;-46
2021/11/12 01:29:57;;;;;;;13.45;10.57;;;;;;;6.20;71.61;101564.41;4992283;28;20550;-46
2021/11/12 01:32:23;;;;;;;16.98;11.43;;;;;;;6.20;72.42;101574.88;5003890;28;20058;-45
2021/11/12 01:34:52;;;;;;;15.18;10.57;;;;;;;6.19;72.01;101570.50;5006263;28;20057;-45
2021/11/12 01:37:20;;;;;;;17.88;13.07;;;;;;;6.20;71.70;101569.66;4992673;28;20117;-45
2021/11/12 01:39:51;;;;;;;17.25;11.73;;;;;;;6.19;72.07;101567.88;4993006;28;20096;-45
2021/11/12 01:42:18;;;;;;;17.27;11.20;;;;;;;6.19;71.61;101577.47;4996282;28;20080;-45
2021/11/12 01:44:48;;;;;;;14.40;10.57;;;;;;;6.19;71.99;101567.88;5004814;28;20030;-46
2021/11/12 01:47:26;;;;;;;16.52;11.32;;;;;;;6.19;71.82;101570.50;4996677;28;20040;-46
2021/11/12 01:49:54;;;;;;;16.30;10.90;;;;;;;6.20;72.28;101567.03;4995538;28;20426;-46
2021/11/12 01:52:33;;;;;;;18.33;11.52;;;;;;;6.19;72.11;101567.88;5006352;28;20454;-46
2021/11/12 01:55:04;;;;;;;16.98;11.25;;;;;;;6.20;71.69;101574.88;4995186;28;20029;-45
2021/11/12 02:00:15;;;;;;;16.33;10.82;;;;;;;6.19;72.29;101552.16;5009846;28;20105;-45
2021/11/12 02:02:41;;;;;;;18.15;10.80;;;;;;;6.20;72.21;101553.06;4995770;28;20029;-45
2021/11/12 02:05:07;;;;;;;17.33;10.23;;;;;;;6.21;72.29;101560.06;4995749;28;20041;-45
2021/11/12 02:07:35;;;;;;;17.40;11.95;;;;;;;6.20;72.28;101551.31;4994431;28;20054;-45
2021/11/12 02:10:05;;;;;;;16.75;10.98;;;;;;;6.19;72.25;101546.94;4996025;28;20030;-46
2021/11/12 02:15:16;;;;;;;16.65;10.50;;;;;;;6.18;72.26;101545.16;5008862;28;20498;-45
2021/11/12 02:17:46;;;;;;;14.90;10.00;;;;;;;6.19;72.12;101546.94;4995439;28;20030;-45
2021/11/12 02:20:17;;;;;;;18.98;11.60;;;;;;;6.18;71.95;101539.94;4995920;28;20030;-43
2021/11/12 02:22:45;;;;;;;17.85;10.38;;;;;;;6.18;72.06;101537.31;4995442;28;20046;-45
2021/11/12 02:25:19;;;;;;;16.25;10.90;;;;;;;6.19;72.18;101539.06;5002583;28;20055;-45
2021/11/12 02:28:05;;;;;;;15.88;9.80;;;;;;;6.19;72.08;101532.94;4994035;28;20117;-45
2021/11/12 02:30:31;;;;;;;17.20;9.90;;;;;;;6.19;72.31;101536.44;4994849;28;20110;-45
2021/11/12 02:33:15;;;;;;;16.20;9.85;;;;;;;6.18;72.26;101529.44;4995728;28;20409;-45
2021/11/12 02:35:59;;;;;;;15.32;10.02;;;;;;;6.18;72.23;101537.31;4995338;28;20022;-45
2021/11/12 02:38:24;;;;;;;18.92;9.93;;;;;;;6.18;72.06;101537.31;5000328;28;20470;-46
2021/11/12 02:40:51;;;;;;;15.50;10.27;;;;;;;6.18;71.87;101537.31;5009488;28;20112;-45
2021/11/12 02:43:17;;;;;;;15.85;11.02;;;;;;;6.19;72.33;101539.06;4999082;28;20045;-45
2021/11/12 02:45:44;;;;;;;15.98;9.80;;;;;;;6.18;71.77;101545.16;4995438;28;20031;-46
2021/11/12 02:48:11;;;;;;;16.50;10.00;;;;;;;6.18;72.42;101546.88;4994136;28;20030;-45
2021/11/12 02:50:38;;;;;;;16.42;10.30;;;;;;;6.18;71.94;101534.69;4993656;28;20109;-44
2021/11/12 02:53:08;;;;;;;15.93;10.07;;;;;;;6.18;71.99;101537.31;4993790;28;20030;-45
2021/11/12 02:55:34;;;;;;;16.20;10.00;;;;;;;6.19;71.81;101544.31;5000377;28;20026;-45
2021/11/12 02:57:59;;;;;;;16.42;9.60;;;;;;;6.18;71.94;101539.94;5010316;28;20034;-45
2021/11/12 03:00:25;;;;;;;15.55;9.60;;;;;;;6.20;72.18;101543.44;4994369;28;20525;-45
2021/11/12 03:02:51;;;;;;;20.27;10.95;;;;;;;6.19;71.88;101540.78;4994959;28;20080;-45
2021/11/12 03:05:16;;;;;;;17.08;10.93;;;;;;;6.18;71.68;101539.94;4994899;28;20030;-45
2021/11/12 03:07:42;;;;;;;17.05;9.75;;;;;;;6.18;71.90;101537.31;4997025;28;20131;-45
2021/11/12 03:10:08;;;;;;;16.13;9.68;;;;;;;6.18;72.33;101539.94;4995876;28;20470;-45
2021/11/12 03:12:33;;;;;;;14.90;9.60;;;;;;;6.18;72.27;101550.41;5011778;28;20026;-45
2021/11/12 03:14:59;;;;;;;15.25;8.77;;;;;;;6.18;72.19;101539.03;5000711;28;20141;-45
2021/11/12 03:17:25;;;;;;;15.20;10.25;;;;;;;6.18;72.07;101545.16;4994768;28;20034;-46
2021/11/12 03:19:50;;;;;;;13.07;8.35;;;;;;;6.18;72.04;101545.16;4994834;28;20566;-45
2021/11/12 03:22:18;;;;;;;13.73;9.20;;;;;;;6.19;71.99;101546.03;4992869;28;20641;-45
2021/11/12 03:24:58;;;;;;;14.50;8.30;;;;;;;6.18;72.16;101539.94;5003293;28;20030;-45
2021/11/12 04:18:24;;;;;;;13.07;7.57;;;;;;;6.16;72.39;101529.41;4971550;28;20482;-45
2021/11/12 04:20:59;;;;;;;13.18;7.70;;;;;;;6.18;71.94;101537.31;4991550;28;20035;-46
2021/11/12 05:13:16;;;;;;;14.77;8.70;;;;;;;6.14;72.25;101468.22;4999026;28;20041;-42
2021/11/12 05:34:53;;;;;;;14.50;8.90;;;;;;;6.14;72.02;101465.63;5005248;28;20037;-43
2021/11/12 05:56:48;;;;;;;17.02;9.68;;;;;;;6.14;72.28;101454.28;5000967;28;20079;-43
2021/11/12 05:59:15;;;;;;;20.70;10.73;;;;;;;6.14;72.60;101442.03;5011075;28;20037;-44
2021/11/12 06:01:42;;;;;;;16.83;8.88;;;;;;;6.15;72.62;101442.94;5001610;28;20053;-43
2021/11/12 06:04:08;;;;;;;17.95;9.10;;;;;;;6.16;72.21;101447.31;5007822;28;20030;-44
2021/11/12 06:06:33;;;;;;;17.45;9.73;;;;;;;6.16;72.34;101452.56;4999818;28;20513;-42
2021/11/12 06:08:59;;;;;;;17.38;9.75;;;;;;;6.17;72.68;101459.56;5002937;28;20088;-43
2021/11/12 06:11:27;;;;;;;17.58;9.52;;;;;;;6.15;72.08;101461.28;5008744;28;20064;-43
2021/11/12 06:13:56;;;;;;;13.45;9.32;;;;;;;6.16;72.10;101457.78;5002502;28;20040;-43
2021/11/12 06:16:22;;;;;;;17.58;10.13;;;;;;;6.14;72.38;101455.13;5002764;28;20026;-43
2021/11/12 06:18:47;;;;;;;15.95;9.55;;;;;;;6.15;72.51;101456.03;5003252;28;20087;-43
2021/11/12 06:21:12;;;;;;;16.85;10.02;;;;;;;6.15;72.48;101450.78;5016310;28;20573;-43
2021/11/12 06:23:39;;;;;;;15.75;9.50;;;;;;;6.15;72.48;101450.78;5015814;28;20068;-43
2021/11/12 06:26:05;;;;;;;15.18;9.88;;;;;;;6.15;72.33;101458.66;5013049;28;20018;-44
2021/11/12 06:28:30;;;;;;;22.25;10.07;;;;;;;6.15;72.37;101461.28;5007084;28;20544;-45
2021/11/12 06:30:56;;;;;;;14.93;8.75;;;;;;;6.16;72.40;101460.41;4994258;28;20026;-44
2021/11/12 06:33:23;;;;;;;14.05;8.98;;;;;;;6.14;72.34;101454.28;4993251;28;20034;-44
2021/11/12 06:35:49;;;;;;;16.90;9.85;;;;;;;6.15;72.55;101467.41;4993478;28;20034;-44
2021/11/12 06:38:18;;;;;;;15.20;10.15;;;;;;;6.16;72.17;101465.66;5006234;28;20014;-44
2021/11/12 06:40:44;;;;;;;17.55;8.93;;;;;;;6.15;72.74;101451.69;4992712;28;20031;-44
2021/11/12 06:43:22;;;;;;;15.35;9.73;;;;;;;6.16;72.23;101452.56;4992553;28;20026;-45
2021/11/12 06:51:16;;;;;;;14.35;9.15;;;;;;;6.15;72.19;101446.44;5010432;28;20072;-45
2021/11/12 06:53:42;;;;;;;18.55;9.43;;;;;;;6.14;72.13;101451.66;4997804;28;20026;-45
2021/11/12 06:56:07;;;;;;;16.33;9.07;;;;;;;6.15;72.53;101453.41;5000119;28;20026;-44
2021/11/12 06:58:33;;;;;;;18.67;10.73;;;;;;;6.15;72.47;101450.78;4999349;28;20033;-44
2021/11/12 07:00:58;;;;;;;16.85;9.70;;;;;;;6.15;72.31;101459.53;5006317;28;20040;-44
2021/11/12 07:03:24;;;;;;;15.85;9.57;;;;;;;6.16;72.18;101457.78;4997983;28;20080;-44
2021/11/12 07:05:50;;;;;;;15.95;8.77;;;;;;;6.15;72.61;101461.28;4999375;28;20166;-43
2021/11/12 07:08:16;;;;;;;15.48;9.48;;;;;;;6.16;72.58;101452.56;5006973;28;20108;-44
2021/11/12 07:10:41;;;;;;;18.02;10.20;;;;;;;6.14;72.48;101449.91;5011561;28;20585;-44
2021/11/12 07:13:07;;;;;;;13.98;9.02;;;;;;;6.14;72.38;101449.03;5009995;28;20120;-44
2021/11/12 07:15:32;;;;;;;13.60;8.85;;;;;;;6.13;72.49;101452.47;5002213;28;20494;-43
2021/11/12 07:17:57;;;;;;;15.27;10.63;;;;;;;6.14;72.39;101454.28;4999729;28;20483;-44
2021/11/12 07:20:23;;;;;;;14.95;9.90;;;;;;;6.14;72.42;101449.91;4998428;28;20034;-44
2021/11/12 07:22:48;;;;;;;13.07;9.30;;;;;;;6.14;72.32;101463.00;4994138;28;20061;-44
2021/11/12 07:25:14;;;;;;;13.80;9.05;;;;;;;6.14;72.68;101464.75;5001308;28;20025;-43
2021/11/12 07:27:39;;;;;;;16.92;10.07;;;;;;;6.14;72.04;101473.47;4999689;28;20037;-43
2021/11/12 07:30:11;;;;;;;15.43;9.95;;;;;;;6.14;72.65;101473.47;5004722;28;20026;-45
2021/11/12 07:32:37;;;;;;;14.65;9.52;;;;;;;6.15;72.10;101471.75;5007240;28;20446;-44
2021/11/12 07:35:03;;;;;;;18.08;10.23;;;;;;;6.14;72.36;101468.22;4995009;28;20093;-44
2021/11/12 07:37:31;;;;;;;15.70;10.00;;;;;;;6.15;72.41;101471.75;4996305;28;20026;-44
2021/11/12 07:39:58;;;;;;;13.57;9.55;;;;;;;6.14;72.21;101467.38;5005521;28;20038;-43
2021/11/12 07:42:50;;;;;;;16.27;9.68;;;;;;;6.14;71.96;101470.00;5002389;28;20030;-44
2021/11/12 07:45:31;;;;;;;17.65;10.45;;;;;;;6.14;72.11;101475.22;5005144;28;20298;-44
2021/11/12 07:47:56;;;;;;;17.13;10.27;;;;;;;6.14;72.16;101464.75;5001272;28;20041;-44
2021/11/12 07:50:22;;;;;;;16.35;9.93;;;;;;;6.14;72.38;101459.50;4995762;28;20022;-44
2021/11/12 07:52:47;;;;;;;16.27;10.20;;;;;;;6.13;72.36;101453.38;4998625;28;20109;-44
2021/11/12 07:55:12;;;;;;;18.08;10.48;;;;;;;6.14;72.29;101456.88;4995593;28;20057;-43
2021/11/12 07:57:38;;;;;;;17.90;10.90;;;;;;;6.13;72.64;101448.13;5005507;28;20062;-45
2021/11/12 08:00:07;;;;;;;17.70;10.32;;;;;;;6.15;72.52;101445.56;5001273;28;20026;-44
2021/11/12 08:02:32;;;;;;;14.90;10.30;;;;;;;6.13;72.00;101447.25;4999207;28;20030;-45
2021/11/12 08:05:12;;;;;;;15.90;10.50;;;;;;;6.13;72.18;101436.75;5003593;28;20048;-44
2021/11/12 08:07:37;;;;;;;14.30;8.82;;;;;;;6.14;72.26;101433.31;5002702;28;20172;-44
2021/11/12 08:10:05;;;;;;;27.58;14.85;;;;;;;6.11;73.03;101430.63;4994210;28;20019;-41
2021/11/12 08:12:37;;;;;;;39.78;16.10;;;;;;;6.00;73.61;101436.47;5001372;28;20044;-46
2021/11/12 08:15:14;;;;;;;34.88;16.50;;;;;;;5.99;74.04;101444.28;5000946;28;20151;-50
2021/11/12 08:18:05;;;;;;;34.00;17.83;;;;;;;5.91;74.02;101444.13;5006050;28;20030;-49
2021/11/12 08:20:47;;;;;;;27.45;17.48;;;;;;;5.84;74.35;101437.84;5000319;28;20116;-50
2021/11/12 08:24:01;;;;;;;26.45;17.20;;;;;;;5.83;74.36;101437.84;5003073;28;20116;-49
2021/11/12 08:26:10;;;;;;;30.13;17.08;;;;;;;5.81;74.81;101447.38;4995346;28;20121;-49
2021/11/12 08:34:40;;;;;;;30.15;17.45;;;;;;;5.69;74.64;101441.00;4998785;28;20042;-45
2021/11/12 08:39:53;;;;;;;26.67;16.65;;;;;;;5.61;74.82;101432.09;4958659;28;20118;-45
2021/11/12 08:45:17;;;;;;;27.15;16.42;;;;;;;5.74;73.61;101426.28;4982010;28;20038;-44
2021/11/12 08:47:46;;;;;;;24.48;15.27;;;;;;;5.77;74.20;101421.13;4998318;28;20413;-43
2021/11/12 08:50:17;;;;;;;26.50;15.77;;;;;;;5.81;73.64;101415.97;4996955;28;20034;-44
2021/11/12 08:52:51;;;;;;;27.88;15.63;;;;;;;5.84;73.26;101421.28;5008215;28;20029;-44
2021/11/12 08:55:24;;;;;;;23.67;15.20;;;;;;;5.85;73.11;101417.81;4997278;28;20049;-43
2021/11/12 08:57:49;;;;;;;22.05;14.10;;;;;;;5.86;72.86;101420.47;5003879;28;20502;-44
2021/11/12 09:00:14;;;;;;;25.10;14.60;;;;;;;5.88;73.39;101430.97;4996303;28;20023;-45
2021/11/12 09:02:40;;;;;;;21.85;14.25;;;;;;;5.90;73.28;101418.78;5004293;28;20104;-45
2021/11/12 09:05:05;;;;;;;21.05;15.07;;;;;;;5.89;72.95;101417.03;5002450;28;20037;-44
2021/11/12 09:07:31;;;;;;;22.00;13.68;;;;;;;5.91;73.29;101410.09;5010022;28;20026;-44
2021/11/12 09:09:56;;;;;;;20.77;14.05;;;;;;;5.91;72.92;101405.72;5003117;28;20429;-44
2021/11/12 09:12:24;;;;;;;20.92;13.57;;;;;;;5.92;72.64;101401.38;4998765;28;20478;-44
2021/11/12 09:14:52;;;;;;;21.15;13.15;;;;;;;5.93;72.98;101408.38;4996572;28;20030;-44
2021/11/12 09:17:20;;;;;;;21.88;13.48;;;;;;;5.94;73.15;101409.28;4998017;28;20140;-45
2021/11/12 09:19:51;;;;;;;21.52;12.95;;;;;;;5.94;73.04;101409.28;4996809;28;20024;-45
2021/11/12 09:22:20;;;;;;;17.73;12.82;;;;;;;5.95;73.26;101408.41;4997877;28;20095;-44
2021/11/12 09:24:46;;;;;;;22.08;12.57;;;;;;;5.93;73.00;101397.91;5005271;28;20021;-44
2021/11/12 09:27:12;;;;;;;20.33;14.02;;;;;;;5.94;72.95;101397.06;4994165;28;20049;-44
2021/11/12 09:29:37;;;;;;;21.80;13.02;;;;;;;5.94;72.63;101397.06;4996284;28;20026;-44
2021/11/12 09:32:04;;;;;;;21.50;13.57;;;;;;;5.95;72.71;101388.38;4994512;28;20096;-44
2021/11/12 09:34:34;;;;;;;19.92;12.65;;;;;;;5.96;72.99;101391.84;4996133;28;20369;-45
2021/11/12 09:37:01;;;;;;;18.33;12.02;;;;;;;5.97;72.51;101383.16;4996514;28;20033;-45
2021/11/12 09:39:27;;;;;;;20.42;12.57;;;;;;;5.95;72.75;101375.28;4994684;28;20057;-45
2021/11/12 09:41:52;;;;;;;26.35;16.85;;;;;;;5.89;73.12;101365.53;4997655;28;20069;-50
2021/11/12 09:44:18;;;;;;;29.92;17.98;;;;;;;5.73;74.18;101366.94;5011542;28;20057;-49
2021/11/12 09:46:48;;;;;;;28.33;16.85;;;;;;;5.73;73.59;101359.09;5003149;28;20116;-49
2021/11/12 09:49:14;;;;;;;26.67;16.45;;;;;;;5.69;74.27;101341.53;5004949;28;20068;-50
2021/11/12 09:51:40;;;;;;;26.27;17.05;;;;;;;5.62;74.57;101343.16;5003599;28;20061;-49
2021/11/12 09:54:06;;;;;;;31.52;18.13;;;;;;;5.61;74.69;101343.13;5002350;28;20038;-47
2021/11/12 09:56:34;;;;;;;31.55;18.80;;;;;;;5.57;75.38;101326.44;4961972;28;20142;-52
2021/11/12 09:58:59;;;;;;;33.17;19.83;;;;;;;5.61;75.46;101327.41;4989023;28;20545;-47
2021/11/12 10:01:36;;;;;;;34.70;20.42;;;;;;;5.55;75.08;101317.69;4998930;28;20030;-53
2021/11/12 10:04:05;;;;;;;29.92;19.80;;;;;;;5.51;75.44;101316.72;4998543;28;20109;-48
2021/11/12 10:06:36;;;;;;;31.42;17.92;;;;;;;5.48;75.51;101310.56;4997724;28;20029;-48
2021/11/12 10:09:03;;;;;;;30.98;17.73;;;;;;;5.46;75.96;101318.38;5000192;28;20026;-48
2021/11/12 10:11:32;;;;;;;29.23;18.13;;;;;;;5.43;75.60;101312.19;4999666;28;20044;-45
2021/11/12 10:14:02;;;;;;;29.02;16.80;;;;;;;5.44;75.46;101317.44;5000469;28;20082;-47
2021/11/12 10:16:37;;;;;;;29.55;17.05;;;;;;;5.42;76.54;101300.84;5007460;28;20080;-54
2021/11/12 10:19:15;;;;;;;30.52;17.48;;;;;;;5.34;76.27;101291.94;5002989;28;20061;-48
2021/11/12 10:21:56;;;;;;;27.92;17.90;;;;;;;5.31;75.71;101287.53;4976424;28;20034;-49
2021/11/12 10:24:30;;;;;;;29.08;18.48;;;;;;;5.34;75.97;101286.72;4999731;28;20498;-54
2021/11/12 10:27:07;;;;;;;30.13;19.50;;;;;;;5.34;75.98;101291.94;5001562;28;20038;-45
2021/11/12 10:29:35;;;;;;;27.02;16.27;;;;;;;5.44;75.80;101286.03;5000478;28;20021;-45
2021/11/12 10:32:05;;;;;;;27.90;16.75;;;;;;;5.49;75.34;101279.19;4995562;28;20035;-46
2021/11/12 10:34:33;;;;;;;27.60;17.33;;;;;;;5.55;74.99;101264.47;5006514;28;20025;-45
2021/11/12 10:37:07;;;;;;;28.42;17.23;;;;;;;5.60;74.52;101255.88;4997933;28;20478;-52
2021/11/12 10:39:45;;;;;;;30.05;17.73;;;;;;;5.56;75.11;101255.75;4994165;28;20053;-45
2021/11/12 10:42:10;;;;;;;29.48;17.50;;;;;;;5.56;75.27;101261.00;4995636;28;20037;-44
2021/11/12 10:44:43;;;;;;;29.67;16.27;;;;;;;5.59;75.16;101261.94;4997680;28;20034;-45
2021/11/12 10:47:09;;;;;;;34.33;19.13;;;;;;;5.60;75.39;101252.38;4999906;28;20388;-44
2021/11/12 10:49:38;;;;;;;27.02;16.63;;;;;;;5.63;74.63;101252.41;4995616;28;20029;-44
2021/11/12 10:52:13;;;;;;;28.90;17.13;;;;;;;5.63;74.78;101237.63;4998083;28;20117;-45
2021/11/12 10:54:42;;;;;;;30.05;17.23;;;;;;;5.64;74.48;101230.66;5000184;28;20486;-45
2021/11/12 10:57:10;;;;;;;26.77;16.38;;;;;;;5.65;74.18;101241.16;4998847;28;20042;-45
2021/11/12 10:59:36;;;;;;;27.95;17.58;;;;;;;5.67;74.59;101233.31;5000785;28;20013;-44
2021/11/12 11:02:06;;;;;;;29.42;18.02;;;;;;;5.66;74.63;101234.16;5004010;28;20104;-44
2021/11/12 11:04:40;;;;;;;28.15;17.30;;;;;;;5.67;74.23;101230.69;4997150;28;20041;-44
2021/11/12 11:07:19;;;;;;;22.05;15.13;;;;;;;5.68;74.21;101219.41;4998712;28;20030;-44
2021/11/12 11:09:44;;;;;;;26.10;16.75;;;;;;;5.68;74.32;101213.25;5002846;28;20497;-43
2021/11/12 11:12:33;;;;;;;26.95;16.10;;;;;;;5.68;74.30;101201.06;5011664;28;20029;-43
2021/11/12 11:15:11;;;;;;;29.63;18.13;;;;;;;5.69;74.00;101188.84;5005740;28;20034;-44
2021/11/12 11:17:41;;;;;;;28.08;17.63;;;;;;;5.67;73.87;101170.50;5001230;28;20030;-44
2021/11/12 11:20:10;;;;;;;27.38;17.52;;;;;;;5.68;74.09;101169.66;5002284;28;20079;-44
2021/11/12 11:22:57;;;;;;;27.95;16.70;;;;;;;5.69;73.82;101158.34;4999456;28;20030;-44
2021/11/12 11:25:24;;;;;;;29.88;17.52;;;;;;;5.70;74.40;101148.75;5007364;28;20025;-44
2021/11/12 11:27:52;;;;;;;28.73;17.50;;;;;;;5.69;74.15;101153.09;5008972;28;20045;-43
2021/11/12 11:30:17;;;;;;;27.30;16.95;;;;;;;5.71;74.01;101160.97;5008389;28;20482;-44
2021/11/12 11:32:49;;;;;;;25.75;17.58;;;;;;;5.70;73.95;101160.09;4996328;28;20049;-44
2021/11/12 11:35:16;;;;;;;28.48;17.45;;;;;;;5.72;73.72;101170.59;5004419;28;20034;-44
2021/11/12 11:37:42;;;;;;;27.17;16.92;;;;;;;5.71;74.33;101147.91;4997527;28;20050;-45
2021/11/12 11:40:10;;;;;;;32.15;17.85;;;;;;;5.71;74.14;101140.94;5002041;28;20450;-45
2021/11/12 11:42:41;;;;;;;27.90;19.33;;;;;;;5.72;74.04;101127.00;4998042;28;20026;-44
2021/11/12 11:45:07;;;;;;;27.73;17.38;;;;;;;5.71;74.15;101135.69;4996008;28;20034;-43
2021/11/12 11:47:33;;;;;;;26.13;17.25;;;;;;;5.70;74.34;101128.69;5010622;28;20521;-44
2021/11/12 11:49:58;;;;;;;27.48;17.65;;;;;;;5.72;73.81;101132.22;4996833;28;20030;-45
2021/11/12 11:52:29;;;;;;;29.70;17.88;;;;;;;5.73;73.68;101125.22;4997675;28;20022;-44
2021/11/12 11:54:54;;;;;;;29.60;18.13;;;;;;;5.72;74.08;101116.53;4999350;28;20026;-43
2021/11/12 11:57:27;;;;;;;29.40;18.20;;;;;;;5.73;73.89;101122.63;5003113;28;20140;-44
2021/11/12 12:00:17;;;;;;;28.13;17.42;;;;;;;5.73;73.70;101131.34;5006812;28;20029;-44
2021/11/12 12:02:43;;;;;;;25.95;17.70;;;;;;;5.74;73.52;101130.50;4999919;28;20429;-44
2021/11/12 12:05:08;;;;;;;26.60;17.38;;;;;;;5.74;74.00;101122.66;4997885;28;20092;-44
2021/11/12 12:07:54;;;;;;;32.45;18.73;;;;;;;5.75;73.75;101121.81;5001921;28;20486;-43
2021/11/12 12:10:21;;;;;;;29.58;19.02;;;;;;;5.75;73.86;101115.69;4990648;28;20041;-42
2021/11/12 12:12:49;;;;;;;28.90;18.80;;;;;;;5.75;73.53;101108.72;5000426;28;20493;-43
2021/11/12 12:15:15;;;;;;;31.75;19.02;;;;;;;5.77;73.83;101107.00;4992329;28;20070;-44
2021/11/12 12:17:43;;;;;;;32.55;19.80;;;;;;;5.77;73.57;101106.13;5000680;28;20038;-43
2021/11/12 12:36:56;;;;;;;27.60;19.30;;;;;;;5.78;74.02;101087.81;5008779;28;20038;-43
2021/11/12 13:25:25;;;;;;;30.25;20.58;;;;;;;5.82;73.88;101054.72;5000134;28;20033;-44
2021/11/12 13:28:08;;;;;;;34.08;20.33;;;;;;;5.83;73.66;101066.97;5003244;28;20034;-44
2021/11/12 13:30:34;;;;;;;30.98;19.70;;;;;;;5.82;73.29;101072.16;4989564;28;20117;-44
2021/11/12 13:33:00;;;;;;;31.92;20.70;;;;;;;5.82;73.43;101075.69;4994765;28;20101;-44
2021/11/12 13:35:34;;;;;;;31.67;19.50;;;;;;;5.83;73.20;101066.97;4992216;28;20116;-44
2021/11/12 13:38:01;;;;;;;28.83;20.52;;;;;;;5.84;73.12;101075.72;4997052;28;20034;-44
2021/11/12 13:40:34;;;;;;;30.80;21.02;;;;;;;5.78;73.55;101056.41;5005236;28;20092;-44
2021/11/12 13:43:00;;;;;;;32.00;21.20;;;;;;;5.84;73.50;101055.63;5005032;28;20045;-43
2021/11/12 13:45:27;;;;;;;34.33;21.92;;;;;;;5.82;73.67;101065.22;5008251;28;20041;-43
2021/11/12 13:48:13;;;;;;;32.00;22.02;;;;;;;5.83;73.67;101066.09;5001852;28;20064;-43
2021/11/12 13:50:41;;;;;;;37.17;23.38;;;;;;;5.84;73.26;101055.63;5000503;28;20042;-43
2021/11/12 13:56:33;;;;;;;34.78;21.38;;;;;;;5.82;73.06;101046.88;5003765;28;20453;-44
2021/11/12 13:59:10;;;;;;;32.33;21.98;;;;;;;5.83;73.08;101042.53;5004510;28;20039;-44
2021/11/12 14:01:36;;;;;;;35.10;22.00;;;;;;;5.84;73.64;101052.16;4992964;28;20117;-43
2021/11/12 14:04:25;;;;;;;33.90;22.55;;;;;;;5.84;72.95;101053.00;4999613;28;20285;-43
2021/11/12 14:06:51;;;;;;;35.47;21.58;;;;;;;5.83;73.07;101050.38;5012583;28;20410;-43
2021/11/12 14:09:19;;;;;;;34.70;21.95;;;;;;;5.83;73.64;101046.03;5008607;28;20029;-43
2021/11/12 14:11:45;;;;;;;32.78;21.13;;;;;;;5.84;73.64;101050.38;5003087;28;20030;-42
2021/11/12 14:14:21;;;;;;;37.65;21.83;;;;;;;5.84;73.43;101052.16;5000883;28;20034;-43
2021/11/12 14:16:55;;;;;;;34.10;21.23;;;;;;;5.83;73.46;101047.78;5004878;28;20034;-44
2021/11/12 14:19:40;;;;;;;34.00;21.90;;;;;;;5.83;73.45;101055.63;4995394;28;20034;-44
2021/11/12 14:22:17;;;;;;;32.88;21.63;;;;;;;5.82;73.45;101048.59;5000164;28;20037;-43
2021/11/12 14:24:49;;;;;;;31.70;21.08;;;;;;;5.84;73.57;101052.16;4997400;28;20264;-43
2021/11/12 14:27:34;;;;;;;38.10;22.33;;;;;;;5.83;73.75;101051.25;5004949;28;20029;-44
2021/11/12 14:36:15;;;;;;;34.88;21.77;;;;;;;5.84;73.55;101049.53;4970783;28;20126;-45
2021/11/12 14:38:53;;;;;;;32.80;21.35;;;;;;;5.84;73.04;101052.16;4971841;28;20031;-43
2021/11/12 14:41:37;;;;;;;36.92;23.65;;;;;;;5.83;73.16;101042.53;4987263;28;20042;-44
2021/11/12 14:46:57;;;;;;;36.25;22.83;;;;;;;5.83;73.46;101045.16;4999354;28;20030;-44
2021/11/12 14:49:36;;;;;;;33.88;21.88;;;;;;;5.84;73.15;101045.16;4993337;28;20034;-43
2021/11/12 14:52:08;;;;;;;33.30;22.02;;;;;;;5.84;73.14;101046.91;5001242;28;20036;-43
2021/11/12 14:54:37;;;;;;;33.33;21.33;;;;;;;5.85;73.35;101043.44;4995383;28;20053;-43
2021/11/12 14:57:07;;;;;;;35.95;21.92;;;;;;;5.84;73.79;101041.69;4998416;28;20053;-45
2021/11/12 14:59:40;;;;;;;36.03;21.70;;;;;;;5.85;72.94;101033.84;5003943;28;20482;-45
2021/11/12 15:02:08;;;;;;;32.83;20.55;;;;;;;5.85;73.21;101036.47;5004183;28;20588;-44
2021/11/12 15:04:33;;;;;;;33.35;21.88;;;;;;;5.86;73.34;101013.75;5003146;28;20105;-42
2021/11/12 15:06:59;;;;;;;34.45;21.42;;;;;;;5.84;73.53;101021.59;5002154;28;20113;-43
2021/11/12 15:09:29;;;;;;;29.80;21.63;;;;;;;5.84;73.28;101020.72;5000317;28;20072;-42
2021/11/12 15:11:54;;;;;;;36.70;21.02;;;;;;;5.86;73.20;101021.63;5012852;28;20371;-43
2021/11/12 15:14:28;;;;;;;32.22;20.98;;;;;;;5.87;72.75;101029.50;4997663;28;20030;-44
2021/11/12 15:16:54;;;;;;;34.05;20.98;;;;;;;5.87;73.57;101031.25;4998989;28;20065;-43
2021/11/12 15:19:22;;;;;;;32.88;21.20;;;;;;;5.87;73.23;101033.88;5004061;28;20026;-43
2021/11/12 15:26:55;;;;;;;32.60;21.35;;;;;;;5.87;73.25;101031.25;4997302;28;20403;-44
2021/11/12 15:29:43;;;;;;;30.48;19.48;;;;;;;5.88;73.42;101033.00;4992031;28;20030;-44
2021/11/12 15:34:41;;;;;;;31.38;20.38;;;;;;;5.86;73.01;101024.25;5002543;28;20022;-43
2021/11/12 15:37:22;;;;;;;36.35;21.92;;;;;;;5.86;73.06;101026.84;5010528;28;20029;-44
2021/11/12 15:45:09;;;;;;;34.03;21.63;;;;;;;5.86;73.46;101014.66;4993618;28;20049;-43
2021/11/12 15:47:42;;;;;;;34.80;21.40;;;;;;;5.86;73.05;101001.56;5006119;28;20079;-42
2021/11/12 15:53:05;;;;;;;33.15;21.38;;;;;;;5.86;73.22;101003.28;4980697;28;20184;-44
2021/11/12 15:58:38;;;;;;;34.92;20.35;;;;;;;5.88;73.26;101005.09;4993166;28;20041;-44
2021/11/12 16:14:49;;;;;;;31.17;19.80;;;;;;;5.87;72.96;100999.84;4992956;28;20052;-44
2021/11/12 16:17:58;;;;;;;32.78;21.58;;;;;;;5.88;73.26;100996.38;5000675;28;20056;-43
2021/11/12 16:20:25;;;;;;;35.45;21.80;;;;;;;5.87;73.22;100994.59;4992731;28;20046;-43
2021/11/12 16:23:14;;;;;;;35.20;21.80;;;;;;;5.87;73.32;100994.59;4992516;28;20034;-43